createdAt,value
2023-02-11T00:00:42.265Z,6.80
2023-02-11T00:02:46.838Z,9.82
2023-02-11T00:04:49.468Z,6.18
2023-02-11T00:06:51.103Z,5.45
2023-02-11T00:08:52.766Z,5.65
2023-02-11T00:10:56.488Z,7.07
2023-02-11T00:12:58.148Z,7.78
2023-02-11T00:14:59.753Z,5.93
2023-02-11T00:17:01.462Z,8.13
2023-02-11T00:19:06.148Z,16.58
2023-02-11T00:21:13.604Z,6.38
2023-02-11T00:23:15.436Z,6.47
2023-02-11T00:25:17.085Z,10.20
2023-02-11T00:27:18.771Z,6.88
2023-02-11T00:29:20.452Z,8.10
2023-02-11T00:31:23.673Z,6.00
2023-02-11T00:33:25.416Z,5.55
2023-02-11T00:35:27.183Z,12.95
2023-02-11T00:37:29.150Z,6.57
2023-02-11T00:39:30.937Z,6.93
2023-02-11T00:41:33.654Z,5.70
2023-02-11T00:43:36.465Z,5.65
2023-02-11T00:45:38.145Z,5.88
2023-02-11T00:47:39.794Z,7.28
2023-02-11T00:49:41.490Z,6.78
2023-02-11T00:51:43.172Z,6.38
2023-02-11T00:53:44.792Z,6.63
2023-02-11T00:55:46.448Z,5.68
2023-02-11T00:57:48.075Z,6.63
2023-02-11T00:59:50.570Z,6.68
2023-02-11T01:01:52.218Z,5.82
2023-02-11T01:03:54.076Z,8.25
2023-02-11T01:05:55.934Z,6.18
2023-02-11T01:07:58.043Z,9.48
2023-02-11T01:09:59.699Z,5.65
2023-02-11T01:12:01.344Z,6.72
2023-02-11T01:14:03.204Z,5.78
2023-02-11T01:16:07.742Z,6.00
2023-02-11T01:18:09.535Z,6.05
2023-02-11T01:20:16.924Z,5.72
2023-02-11T01:22:18.748Z,8.73
2023-02-11T01:24:20.387Z,6.07
2023-02-11T01:26:22.080Z,5.60
2023-02-11T01:28:26.293Z,5.32
2023-02-11T01:30:28.095Z,7.30
2023-02-11T01:32:29.753Z,6.57
2023-02-11T01:34:31.363Z,6.03
2023-02-11T01:36:33.029Z,5.72
2023-02-11T01:38:35.130Z,5.90
2023-02-11T01:40:36.734Z,6.60
2023-02-11T01:42:38.391Z,5.80
2023-02-11T01:44:40.228Z,6.93
2023-02-11T01:46:42.009Z,5.55
2023-02-11T01:48:51.374Z,5.95
2023-02-11T01:50:59.215Z,6.10
2023-02-11T01:53:21.159Z,5.85
2023-02-11T01:55:41.368Z,5.95
2023-02-11T01:57:47.426Z,5.93
2023-02-11T02:00:07.853Z,5.90
2023-02-11T02:02:12.689Z,6.47
2023-02-11T02:04:18.960Z,6.38
2023-02-11T02:06:29.876Z,5.53
2023-02-11T02:08:36.030Z,6.05
2023-02-11T02:10:43.476Z,6.00
2023-02-11T02:12:45.226Z,5.60
2023-02-11T02:14:46.797Z,6.88
2023-02-11T02:16:48.667Z,6.10
2023-02-11T02:18:53.278Z,5.88
2023-02-11T02:21:15.711Z,5.43
2023-02-11T02:23:55.037Z,8.23
2023-02-11T02:26:19.911Z,6.05
2023-02-11T02:28:47.245Z,5.88
2023-02-11T02:31:06.722Z,9.13
2023-02-11T02:33:22.420Z,8.45
2023-02-11T02:35:40.943Z,5.82
2023-02-11T02:37:56.403Z,6.25
2023-02-11T02:40:02.138Z,5.68
2023-02-11T02:42:05.694Z,6.25
2023-02-11T02:44:09.167Z,5.55
2023-02-11T02:46:26.570Z,6.50
2023-02-11T02:48:31.701Z,6.85
2023-02-11T02:50:36.444Z,6.25
2023-02-11T02:52:41.154Z,6.07
2023-02-11T02:55:05.309Z,6.20
2023-02-11T02:57:44.664Z,5.55
2023-02-11T03:00:03.397Z,8.05
2023-02-11T03:02:26.752Z,6.15
2023-02-11T03:04:59.978Z,7.13
2023-02-11T03:07:06.986Z,5.70
2023-02-11T03:09:19.836Z,5.40
2023-02-11T03:11:23.121Z,5.88
2023-02-11T03:13:33.486Z,5.63
2023-02-11T03:15:41.526Z,5.80
2023-02-11T03:17:47.488Z,6.32
2023-02-11T03:19:50.600Z,5.93
2023-02-11T03:21:53.532Z,5.88
2023-02-11T03:24:02.993Z,8.07
2023-02-11T03:26:19.461Z,6.00
2023-02-11T03:28:36.668Z,5.53
2023-02-11T03:30:54.476Z,6.57
2023-02-11T03:33:03.000Z,6.78
2023-02-11T03:35:16.242Z,5.55
2023-02-11T03:37:36.185Z,6.43
2023-02-11T03:39:42.748Z,8.13
2023-02-11T03:41:46.108Z,6.05
2023-02-11T03:43:55.825Z,7.35
2023-02-11T03:45:58.939Z,5.97
2023-02-11T03:48:04.295Z,6.07
2023-02-11T03:50:08.421Z,7.10
2023-02-11T03:52:12.239Z,6.05
2023-02-11T03:54:18.030Z,5.47
2023-02-11T03:56:23.446Z,6.70
2023-02-11T03:58:25.347Z,7.32
2023-02-11T04:00:36.736Z,5.38
2023-02-11T04:02:39.588Z,5.82
2023-02-11T04:04:41.306Z,8.48
2023-02-11T04:06:43.389Z,6.15
2023-02-11T04:08:45.054Z,5.60
2023-02-11T04:10:46.728Z,5.63
2023-02-11T04:12:48.391Z,5.38
2023-02-11T04:14:50.114Z,7.22
2023-02-11T04:16:51.779Z,5.50
2023-02-11T04:18:53.500Z,6.03
2023-02-11T04:20:55.156Z,5.18
2023-02-11T04:22:56.758Z,5.78
2023-02-11T04:24:58.713Z,6.82
2023-02-11T04:27:00.470Z,5.90
2023-02-11T04:29:02.145Z,6.38
2023-02-11T04:31:03.987Z,5.32
2023-02-11T04:33:05.608Z,5.40
2023-02-11T04:35:07.600Z,6.00
2023-02-11T04:37:09.299Z,5.22
2023-02-11T04:39:11.080Z,5.72
2023-02-11T04:41:12.799Z,6.18
2023-02-11T04:43:14.410Z,5.75
2023-02-11T04:45:16.152Z,5.53
2023-02-11T04:47:18.460Z,8.07
2023-02-11T04:49:20.346Z,5.72
2023-02-11T04:51:22.010Z,5.70
2023-02-11T04:53:23.669Z,5.80
2023-02-11T04:55:25.346Z,6.22
2023-02-11T04:57:27.011Z,5.82
2023-02-11T04:59:28.646Z,5.65
2023-02-11T05:01:30.612Z,5.57
2023-02-11T05:03:32.406Z,5.32
2023-02-11T05:05:34.121Z,5.68
2023-02-11T05:07:35.772Z,6.53
2023-02-11T05:09:37.397Z,6.45
2023-02-11T05:11:39.472Z,6.85
2023-02-11T05:13:41.141Z,7.60
2023-02-11T05:15:42.756Z,6.95
2023-02-11T05:17:44.390Z,6.07
2023-02-11T05:19:46.001Z,5.63
2023-02-11T05:22:01.481Z,5.68
2023-02-11T05:24:04.367Z,5.88
2023-02-11T05:26:06.562Z,5.65
2023-02-11T05:28:08.377Z,5.88
2023-02-11T05:30:11.485Z,6.22
2023-02-11T05:32:13.165Z,5.88
2023-02-11T05:34:14.990Z,5.07
2023-02-11T05:36:16.818Z,6.18
2023-02-11T05:38:18.609Z,5.93
2023-02-11T05:40:20.304Z,5.38
2023-02-11T05:42:21.939Z,5.72
2023-02-11T05:44:23.605Z,6.47
2023-02-11T05:46:25.385Z,5.55
2023-02-11T05:48:27.117Z,5.35
2023-02-11T05:50:28.768Z,5.50
2023-02-11T05:52:30.488Z,5.53
2023-02-11T05:54:32.274Z,5.20
2023-02-11T05:56:33.920Z,5.22
2023-02-11T05:58:35.668Z,6.30
2023-02-11T06:00:37.412Z,5.38
2023-02-11T06:02:39.180Z,5.22
2023-02-11T06:04:41.559Z,7.43
2023-02-11T06:06:43.319Z,5.75
2023-02-11T06:08:45.063Z,7.28
2023-02-11T06:10:46.705Z,5.25
2023-02-11T06:12:48.385Z,5.13
2023-02-11T06:14:50.037Z,7.53
2023-02-11T06:16:51.664Z,7.88
2023-02-11T06:18:53.325Z,7.35
2023-02-11T06:20:55.672Z,7.93
2023-02-11T06:22:57.533Z,11.43
2023-02-11T06:25:02.098Z,9.20
2023-02-11T06:27:04.700Z,5.75
2023-02-11T06:29:06.446Z,14.05
2023-02-11T06:31:09.653Z,8.80
2023-02-11T06:33:11.385Z,7.72
2023-02-11T06:35:14.532Z,8.88
2023-02-11T06:37:16.261Z,10.60
2023-02-11T06:39:17.898Z,7.70
2023-02-11T06:41:20.344Z,7.93
2023-02-11T06:43:22.318Z,6.35
2023-02-11T06:45:23.949Z,10.40
2023-02-11T06:47:25.622Z,9.02
2023-02-11T06:49:27.285Z,6.30
2023-02-11T06:51:28.985Z,5.93
2023-02-11T06:53:31.749Z,6.63
2023-02-11T06:55:35.338Z,5.82
2023-02-11T06:57:37.041Z,9.27
2023-02-11T06:59:38.739Z,7.88
2023-02-11T07:01:40.375Z,7.38
2023-02-11T07:03:44.426Z,6.75
2023-02-11T07:05:46.070Z,6.03
2023-02-11T07:07:47.693Z,6.07
2023-02-11T07:09:49.333Z,8.70
2023-02-11T07:11:50.984Z,7.43
2023-02-11T07:13:54.369Z,7.63
2023-02-11T07:15:56.042Z,9.35
2023-02-11T07:17:58.042Z,10.27
2023-02-11T07:19:59.717Z,11.57
2023-02-11T07:22:01.355Z,17.13
2023-02-11T07:24:10.347Z,9.25
2023-02-11T07:26:17.919Z,11.13
2023-02-11T07:28:19.627Z,11.82
2023-02-11T07:30:21.627Z,11.05
2023-02-11T07:32:23.247Z,9.82
2023-02-11T07:34:25.492Z,9.00
2023-02-11T07:36:29.112Z,11.85
2023-02-11T07:38:32.077Z,13.68
2023-02-11T07:40:33.722Z,13.35
2023-02-11T07:42:35.785Z,17.05
2023-02-11T07:44:37.653Z,24.38
2023-02-11T07:46:42.962Z,23.85
2023-02-11T07:48:44.838Z,16.20
2023-02-11T07:50:46.506Z,15.48
2023-02-11T07:52:48.138Z,14.63
2023-02-11T07:54:49.781Z,12.93
2023-02-11T07:56:51.550Z,18.58
2023-02-11T07:58:54.363Z,17.67
2023-02-11T08:01:00.110Z,15.02
2023-02-11T08:03:01.806Z,12.65
2023-02-11T08:05:03.490Z,12.25
2023-02-11T08:07:05.241Z,9.35
2023-02-11T08:09:09.526Z,14.95
2023-02-11T08:11:14.557Z,11.57
2023-02-11T08:13:16.227Z,9.75
2023-02-11T08:15:17.976Z,12.80
2023-02-11T08:17:19.653Z,11.73
2023-02-11T08:19:21.415Z,10.23
2023-02-11T08:21:24.171Z,12.30
2023-02-11T08:23:25.831Z,11.98
2023-02-11T08:25:27.541Z,12.20
2023-02-11T08:27:29.230Z,16.85
2023-02-11T08:29:30.929Z,16.30
2023-02-11T08:31:38.798Z,12.50
2023-02-11T08:33:41.147Z,33.38
2023-02-11T08:35:42.783Z,21.92
2023-02-11T08:37:44.406Z,20.70
2023-02-11T08:39:47.348Z,26.27
2023-02-11T08:41:52.300Z,18.23
2023-02-11T08:43:54.012Z,17.83
2023-02-11T08:45:55.699Z,20.92
2023-02-11T08:47:57.355Z,13.73
2023-02-11T08:49:59.013Z,19.58
2023-02-11T08:52:04.074Z,12.57
2023-02-11T08:54:09.325Z,19.42
2023-02-11T08:56:13.653Z,9.50
2023-02-11T08:58:16.995Z,15.23
2023-02-11T09:00:20.828Z,11.73
2023-02-11T09:02:22.611Z,11.95
2023-02-11T09:04:24.230Z,7.15
2023-02-11T09:06:26.772Z,20.80
2023-02-11T09:08:28.427Z,9.82
2023-02-11T09:10:30.037Z,12.18
2023-02-11T09:12:31.848Z,15.02
2023-02-11T09:14:33.585Z,11.27
2023-02-11T09:16:36.561Z,18.90
2023-02-11T09:18:38.279Z,12.60
2023-02-11T09:20:39.913Z,13.80
2023-02-11T09:22:41.580Z,16.40
2023-02-11T09:24:43.231Z,8.80
2023-02-11T09:26:45.160Z,17.80
2023-02-11T09:28:48.051Z,15.05
2023-02-11T09:30:50.303Z,10.68
2023-02-11T09:32:52.162Z,10.38
2023-02-11T09:34:53.890Z,14.32
2023-02-11T09:36:55.557Z,10.13
2023-02-11T09:38:59.461Z,13.35
2023-02-11T09:41:03.951Z,15.38
2023-02-11T09:43:19.318Z,17.10
2023-02-11T09:45:25.242Z,14.68
2023-02-11T09:47:36.770Z,16.48
2023-02-11T09:49:46.964Z,17.05
2023-02-11T09:51:53.392Z,11.77
2023-02-11T09:54:02.135Z,16.10
2023-02-11T09:56:12.637Z,18.23
2023-02-11T09:58:17.009Z,14.98
2023-02-11T10:00:20.727Z,17.42
2023-02-11T10:02:52.583Z,21.42
2023-02-11T10:05:13.991Z,14.07
2023-02-11T10:07:32.823Z,12.30
2023-02-11T10:09:53.038Z,24.83
2023-02-11T10:12:13.260Z,18.50
2023-02-11T10:14:42.646Z,20.58
2023-02-11T10:16:58.843Z,55.25
2023-02-11T10:19:11.204Z,25.65
2023-02-11T10:21:38.633Z,19.00
2023-02-11T10:23:44.975Z,17.08
2023-02-11T10:25:56.282Z,28.02
2023-02-11T10:28:01.163Z,22.95
2023-02-11T10:30:28.071Z,12.07
2023-02-11T10:32:43.084Z,16.42
2023-02-11T10:34:44.731Z,14.63
2023-02-11T10:36:46.351Z,20.48
2023-02-11T10:38:47.957Z,13.30
2023-02-11T10:40:50.049Z,21.52
2023-02-11T10:43:00.605Z,16.92
2023-02-11T10:45:07.260Z,12.70
2023-02-11T10:47:18.747Z,15.32
2023-02-11T10:49:41.763Z,17.42
2023-02-11T10:51:43.402Z,15.70
2023-02-11T10:53:46.654Z,15.00
2023-02-11T10:55:57.171Z,12.73
2023-02-11T10:58:01.503Z,25.13
2023-02-11T11:00:26.981Z,16.80
2023-02-11T11:02:34.226Z,20.35
2023-02-11T11:04:45.229Z,18.33
2023-02-11T11:08:50.924Z,17.27
2023-02-11T11:11:05.537Z,15.52
2023-02-11T11:13:28.118Z,20.02
2023-02-11T11:15:31.803Z,15.00
2023-02-11T11:17:33.630Z,19.17
2023-02-11T11:19:36.713Z,16.80
2023-02-11T11:21:55.632Z,23.00
2023-02-11T11:24:02.289Z,27.50
2023-02-11T11:26:13.100Z,29.58
2023-02-11T11:28:25.190Z,37.92
2023-02-11T11:30:42.807Z,38.22
2023-02-11T11:32:45.122Z,43.50
2023-02-11T11:34:55.696Z,50.60
2023-02-11T11:36:59.486Z,51.45
2023-02-11T11:39:04.521Z,52.60
2023-02-11T11:41:26.080Z,57.72
2023-02-11T11:43:27.708Z,50.35
2023-02-11T11:45:29.882Z,45.47
2023-02-11T11:47:54.267Z,49.17
2023-02-11T11:50:21.212Z,55.05
2023-02-11T11:52:26.495Z,49.53
2023-02-11T11:54:29.794Z,57.25
2023-02-11T11:56:39.283Z,54.72
2023-02-11T11:58:41.193Z,52.20
2023-02-11T12:01:15.568Z,53.88
2023-02-11T12:03:31.834Z,47.58
2023-02-11T12:05:46.938Z,48.38
2023-02-11T12:08:08.341Z,41.15
2023-02-11T12:10:27.922Z,43.95
2023-02-11T12:12:32.708Z,40.25
2023-02-11T12:14:48.732Z,37.70
2023-02-11T12:17:11.311Z,41.97
2023-02-11T12:19:19.139Z,49.97
2023-02-11T12:21:45.436Z,38.15
2023-02-11T12:24:25.023Z,44.70
2023-02-11T12:26:56.508Z,36.00
2023-02-11T12:29:16.232Z,33.25
2023-02-11T12:31:46.851Z,27.15
2023-02-11T12:34:23.645Z,32.47
2023-02-11T12:36:55.314Z,32.95
2023-02-11T12:39:11.589Z,31.60
2023-02-11T12:41:51.033Z,37.42
2023-02-11T12:43:53.036Z,52.22
2023-02-11T12:46:45.805Z,24.20
2023-02-11T12:49:12.045Z,27.00
2023-02-11T12:51:34.127Z,25.80
2023-02-11T12:54:10.931Z,22.52
2023-02-11T12:56:26.012Z,23.23
2023-02-11T12:58:44.142Z,24.08
2023-02-11T13:01:10.521Z,21.13
2023-02-11T13:03:33.111Z,25.13
2023-02-11T13:05:43.151Z,23.92
2023-02-11T13:07:47.401Z,21.65
2023-02-11T13:09:54.923Z,20.10
2023-02-11T13:12:22.174Z,21.75
2023-02-11T13:14:30.590Z,18.73
2023-02-11T13:16:44.014Z,24.10
2023-02-11T13:19:03.767Z,27.70
2023-02-11T13:21:43.106Z,20.27
2023-02-11T13:23:59.770Z,21.55
2023-02-11T13:26:19.513Z,26.73
2023-02-11T13:28:56.138Z,18.45
2023-02-11T13:31:03.373Z,19.50
2023-02-11T13:33:17.607Z,25.67
2023-02-11T13:35:33.704Z,22.17
2023-02-11T13:37:38.577Z,21.92
2023-02-11T13:39:40.400Z,15.02
2023-02-11T13:41:43.817Z,25.58
2023-02-11T13:43:56.994Z,15.13
2023-02-11T13:46:06.838Z,16.38
2023-02-11T13:48:21.890Z,17.98
2023-02-11T13:50:25.866Z,18.88
2023-02-11T13:52:38.994Z,21.27
2023-02-11T13:54:41.178Z,20.23
2023-02-11T13:56:44.085Z,18.85
2023-02-11T13:58:50.899Z,26.15
2023-02-11T14:00:53.068Z,16.92
2023-02-11T14:03:45.628Z,18.85
2023-02-11T14:06:28.514Z,20.83
2023-02-11T14:08:48.867Z,20.00
2023-02-11T14:10:53.202Z,20.20
2023-02-11T14:13:33.164Z,16.85
2023-02-11T14:15:41.161Z,16.10
2023-02-11T14:17:42.797Z,18.50
2023-02-11T14:19:49.369Z,12.88
2023-02-11T14:21:51.027Z,14.77
2023-02-11T14:23:54.090Z,16.13
2023-02-11T14:26:05.171Z,11.88
2023-02-11T14:30:49.296Z,8.88
2023-02-11T14:33:20.994Z,9.45
2023-02-11T14:35:51.094Z,8.60
2023-02-11T14:38:28.642Z,9.23
2023-02-11T14:40:34.798Z,14.73
2023-02-11T14:42:38.228Z,12.93
2023-02-11T14:44:41.155Z,7.00
2023-02-11T14:46:47.887Z,10.60
2023-02-11T14:48:53.604Z,8.90
2023-02-11T14:51:01.639Z,7.90
2023-02-11T14:53:04.020Z,8.65
2023-02-11T14:55:29.992Z,10.45
2023-02-11T14:57:31.757Z,5.53
2023-02-11T14:59:33.544Z,7.68
2023-02-11T15:01:40.629Z,7.65
2023-02-11T15:03:47.782Z,6.97
2023-02-11T15:06:02.998Z,6.18
2023-02-11T15:08:05.306Z,8.93
2023-02-11T15:10:14.840Z,5.90
2023-02-11T15:12:24.861Z,7.70
2023-02-11T15:14:35.848Z,8.52
2023-02-11T15:16:43.487Z,5.93
2023-02-11T15:19:07.198Z,5.75
2023-02-11T15:21:09.752Z,6.80
2023-02-11T15:23:24.903Z,8.52
2023-02-11T15:25:28.111Z,7.30
2023-02-11T15:27:42.585Z,5.05
2023-02-11T15:29:49.131Z,5.15
2023-02-11T15:32:05.740Z,6.82
2023-02-11T15:34:08.975Z,7.45
2023-02-11T15:36:15.338Z,6.45
2023-02-11T15:38:18.160Z,7.00
2023-02-11T15:40:23.006Z,4.13
2023-02-11T15:42:32.535Z,6.90
2023-02-11T15:44:38.028Z,7.07
2023-02-11T15:46:40.661Z,4.45
2023-02-11T15:48:45.823Z,5.88
2023-02-11T15:50:53.780Z,4.43
2023-02-11T15:52:59.845Z,4.50
2023-02-11T15:55:02.768Z,5.97
2023-02-11T15:57:08.433Z,4.53
2023-02-11T15:59:40.597Z,3.75
2023-02-11T16:01:42.862Z,4.35
2023-02-11T16:03:50.400Z,4.22
2023-02-11T16:05:52.100Z,6.15
2023-02-11T16:07:53.940Z,3.53
2023-02-11T16:09:58.459Z,3.65
2023-02-11T16:12:20.908Z,3.50
2023-02-11T16:14:34.512Z,4.40
2023-02-11T16:16:36.348Z,4.57
2023-02-11T16:18:40.294Z,3.53
2023-02-11T16:20:47.639Z,5.03
2023-02-11T16:22:49.267Z,3.40
2023-02-11T16:24:54.267Z,3.78
2023-02-11T16:26:59.786Z,5.70
2023-02-11T16:29:15.014Z,4.78
2023-02-11T16:31:17.113Z,25.50
2023-02-11T16:33:18.844Z,24.95
2023-02-11T16:35:20.769Z,11.07
2023-02-11T16:37:22.414Z,10.48
2023-02-11T16:39:24.246Z,5.65
2023-02-11T16:41:25.905Z,4.90
2023-02-11T16:43:27.534Z,10.60
2023-02-11T16:45:29.158Z,6.50
2023-02-11T16:47:31.161Z,10.32
2023-02-11T16:49:41.726Z,8.15
2023-02-11T16:51:50.805Z,11.43
2023-02-11T16:53:52.424Z,6.47
2023-02-11T16:55:54.504Z,9.45
2023-02-11T16:57:56.180Z,6.80
2023-02-11T16:59:59.069Z,7.10
2023-02-11T17:02:00.749Z,9.05
2023-02-11T17:04:02.950Z,7.70
2023-02-11T17:06:05.755Z,8.73
2023-02-11T17:08:07.433Z,6.32
2023-02-11T17:10:24.062Z,5.47
2023-02-11T17:12:25.794Z,5.97
2023-02-11T17:14:27.555Z,6.20
2023-02-11T17:16:29.918Z,6.70
2023-02-11T17:18:31.653Z,4.90
2023-02-11T17:20:33.267Z,13.27
2023-02-11T17:22:34.975Z,8.13
2023-02-11T17:24:37.088Z,10.30
2023-02-11T17:26:39.853Z,7.32
2023-02-11T17:28:41.548Z,5.32
2023-02-11T17:30:44.181Z,5.03
2023-02-11T17:32:47.232Z,6.45
2023-02-11T17:34:49.018Z,6.07
2023-02-11T17:36:51.751Z,7.18
2023-02-11T17:38:54.864Z,5.57
2023-02-11T17:41:00.585Z,9.18
2023-02-11T17:43:02.697Z,8.95
2023-02-11T17:45:04.745Z,9.88
2023-02-11T17:47:06.442Z,6.65
2023-02-11T17:49:08.112Z,10.45
2023-02-11T17:51:27.049Z,5.68
2023-02-11T17:53:28.761Z,7.45
2023-02-11T17:55:33.835Z,7.43
2023-02-11T17:57:36.304Z,8.48
2023-02-11T17:59:39.329Z,6.70
2023-02-11T18:01:42.746Z,8.82
2023-02-11T18:03:44.571Z,4.60
2023-02-11T18:05:46.221Z,8.75
2023-02-11T18:07:48.629Z,5.97
2023-02-11T18:09:50.316Z,5.45
2023-02-11T18:11:52.764Z,8.63
2023-02-11T18:13:54.659Z,11.90
2023-02-11T18:16:03.247Z,8.38
2023-02-11T18:18:04.941Z,8.95
2023-02-11T18:20:07.697Z,15.85
2023-02-11T18:22:09.758Z,8.90
2023-02-11T18:24:11.613Z,15.38
2023-02-11T18:26:16.271Z,9.57
2023-02-11T18:28:18.014Z,10.00
2023-02-11T18:30:20.466Z,9.15
2023-02-11T18:32:22.122Z,14.18
2023-02-11T18:34:24.339Z,8.95
2023-02-11T18:36:25.964Z,15.55
2023-02-11T18:38:27.567Z,11.20
2023-02-11T18:40:29.286Z,7.97
2023-02-11T18:42:32.872Z,10.77
2023-02-11T18:44:34.545Z,9.70
2023-02-11T18:46:36.229Z,11.32
2023-02-11T18:48:38.598Z,8.18
2023-02-11T18:50:45.153Z,9.27
2023-02-11T18:52:46.786Z,8.02
2023-02-11T18:54:51.402Z,8.25
2023-02-11T18:56:53.025Z,7.38
2023-02-11T18:58:56.149Z,7.47
2023-02-11T19:00:57.850Z,13.95
2023-02-11T19:02:59.639Z,9.60
2023-02-11T19:05:01.408Z,6.15
2023-02-11T19:07:04.244Z,6.22
2023-02-11T19:09:09.836Z,5.28
2023-02-11T19:11:12.142Z,8.27
2023-02-11T19:13:14.487Z,7.05
2023-02-11T19:15:16.441Z,6.85
2023-02-11T19:17:18.118Z,7.22
2023-02-11T19:19:20.365Z,7.43
2023-02-11T19:21:22.012Z,8.45
2023-02-11T19:23:23.683Z,9.93
2023-02-11T19:25:25.333Z,11.10
2023-02-11T19:27:28.216Z,8.20
2023-02-11T19:29:35.618Z,7.28
2023-02-11T19:31:37.783Z,12.30
2023-02-11T19:33:39.802Z,14.50
2023-02-11T19:35:42.258Z,9.40
2023-02-11T19:37:45.558Z,10.77
2023-02-11T19:39:47.433Z,9.88
2023-02-11T19:41:49.128Z,5.65
2023-02-11T19:43:54.105Z,14.80
2023-02-11T19:45:57.529Z,8.65
2023-02-11T19:48:00.178Z,13.70
2023-02-11T19:50:02.360Z,9.63
2023-02-11T19:52:04.197Z,7.07
2023-02-11T19:54:07.336Z,10.30
2023-02-11T19:56:10.590Z,7.65
2023-02-11T19:58:12.520Z,9.77
2023-02-11T20:00:14.558Z,11.25
2023-02-11T20:02:16.239Z,10.77
2023-02-11T20:04:18.020Z,8.75
2023-02-11T20:06:23.350Z,5.47
2023-02-11T20:08:25.030Z,8.63
2023-02-11T20:10:26.677Z,7.45
2023-02-11T20:12:28.425Z,5.38
2023-02-11T20:14:30.069Z,5.97
2023-02-11T20:16:46.969Z,9.18
2023-02-11T20:18:50.666Z,6.22
2023-02-11T20:20:53.098Z,8.35
2023-02-11T20:22:54.725Z,8.32
2023-02-11T20:24:56.388Z,9.27
2023-02-11T20:26:58.462Z,8.45
2023-02-11T20:29:03.612Z,7.78
2023-02-11T20:31:06.617Z,6.93
2023-02-11T20:33:08.266Z,7.43
2023-02-11T20:35:09.974Z,7.18
2023-02-11T20:37:11.732Z,10.77
2023-02-11T20:39:16.980Z,6.53
2023-02-11T20:41:21.778Z,8.13
2023-02-11T20:43:23.472Z,5.90
2023-02-11T20:45:25.118Z,8.90
2023-02-11T20:47:26.843Z,5.85
2023-02-11T20:49:28.704Z,5.05
2023-02-11T20:51:33.318Z,10.07
2023-02-11T20:53:36.777Z,6.53
2023-02-11T20:55:39.451Z,8.05
2023-02-11T20:57:41.113Z,7.40
2023-02-11T20:59:42.722Z,5.82
2023-02-11T21:01:48.270Z,6.47
2023-02-11T21:04:17.774Z,4.85
2023-02-11T21:06:20.793Z,7.90
2023-02-11T21:08:22.393Z,9.30
2023-02-11T21:10:24.181Z,11.30
2023-02-11T21:12:26.127Z,6.50
2023-02-11T21:14:29.858Z,6.03
2023-02-11T21:16:33.054Z,7.55
2023-02-11T21:18:36.081Z,7.75
2023-02-11T21:20:37.992Z,8.90
2023-02-11T21:22:40.568Z,12.93
2023-02-11T21:24:43.086Z,8.02
2023-02-11T21:26:45.065Z,8.10
2023-02-11T21:28:49.452Z,5.80
2023-02-11T21:30:55.995Z,6.78
2023-02-11T21:33:00.197Z,8.50
2023-02-11T21:35:02.520Z,6.70
2023-02-11T21:37:04.363Z,11.75
2023-02-11T21:39:06.279Z,9.18
2023-02-11T21:41:08.715Z,9.48
2023-02-11T21:43:10.385Z,11.07
2023-02-11T21:45:12.914Z,12.27
2023-02-11T21:47:14.850Z,12.18
2023-02-11T21:49:16.772Z,11.18
2023-02-11T21:51:21.093Z,9.40
2023-02-11T21:53:22.681Z,11.50
2023-02-11T21:55:24.375Z,14.13
2023-02-11T21:57:26.055Z,12.15
2023-02-11T21:59:29.276Z,22.70
2023-02-11T22:01:33.224Z,10.07
2023-02-11T22:03:34.844Z,11.82
2023-02-11T22:05:40.576Z,11.85
2023-02-11T22:07:42.322Z,10.95
2023-02-11T22:09:44.046Z,14.48
2023-02-11T22:11:45.818Z,10.35
2023-02-11T22:13:48.009Z,14.88
2023-02-11T22:15:58.544Z,13.18
2023-02-11T22:18:00.298Z,16.20
2023-02-11T22:20:02.238Z,12.68
2023-02-11T22:22:04.278Z,12.43
2023-02-11T22:24:06.993Z,14.23
2023-02-11T22:26:17.524Z,14.25
2023-02-11T22:28:19.834Z,13.15
2023-02-11T22:30:21.674Z,9.27
2023-02-11T22:32:23.365Z,9.70
2023-02-11T22:34:25.009Z,9.63
2023-02-11T22:36:38.070Z,13.30
2023-02-11T22:38:40.033Z,13.93
2023-02-11T22:40:45.171Z,10.88
2023-02-11T22:42:46.778Z,9.40
2023-02-11T22:44:48.469Z,8.93
2023-02-11T22:46:51.098Z,12.65
2023-02-11T22:48:53.216Z,10.15
2023-02-11T22:50:54.907Z,11.07
2023-02-11T22:52:56.551Z,6.72
2023-02-11T22:55:00.269Z,12.45
2023-02-11T22:57:01.902Z,6.00
2023-02-11T22:59:09.078Z,7.82
2023-02-11T23:01:11.251Z,9.65
2023-02-11T23:03:13.317Z,5.97
2023-02-11T23:05:15.056Z,8.23
2023-02-11T23:07:16.874Z,9.20
2023-02-11T23:09:18.566Z,7.60
2023-02-11T23:11:23.329Z,9.05
2023-02-11T23:13:24.951Z,9.38
2023-02-11T23:15:26.637Z,5.95
2023-02-11T23:17:28.881Z,8.18
2023-02-11T23:19:30.485Z,9.10
2023-02-11T23:21:34.473Z,11.48
2023-02-11T23:23:36.536Z,6.72
2023-02-11T23:25:43.591Z,6.85
2023-02-11T23:27:45.310Z,8.45
2023-02-11T23:29:46.911Z,8.52
2023-02-11T23:31:49.810Z,7.15
2023-02-11T23:33:51.776Z,7.97
2023-02-11T23:35:53.794Z,7.07
2023-02-11T23:37:55.627Z,8.70
2023-02-11T23:39:57.320Z,5.63
2023-02-11T23:41:59.531Z,7.78
2023-02-11T23:44:01.204Z,7.18
2023-02-11T23:46:03.124Z,8.38
2023-02-11T23:48:04.834Z,8.75
2023-02-11T23:50:08.373Z,13.07
2023-02-11T23:52:09.979Z,7.38
2023-02-11T23:54:13.786Z,8.05
2023-02-11T23:56:18.700Z,5.28
2023-02-11T23:58:20.379Z,10.55
